createdAt,value
2019-02-06T05:59:21.695Z,1020.58
2019-02-06T06:00:21.601Z,1020.53
2019-02-06T06:01:21.582Z,1020.44
2019-02-06T06:02:21.568Z,1020.43
2019-02-06T06:03:21.552Z,1020.50
2019-02-06T06:04:21.538Z,1020.39
2019-02-06T11:21:03.351Z,1019.47
2019-02-06T11:21:36.306Z,1019.48
2019-02-06T11:22:36.342Z,1019.39
2019-02-06T11:23:36.542Z,1019.38
2019-02-06T13:40:56.585Z,1017.11
2019-02-06T13:41:29.544Z,1017.07
2019-02-06T13:42:29.518Z,1017.04
2019-02-06T13:43:29.507Z,1017.02
2019-02-06T13:44:29.493Z,1017.03
2019-02-06T13:45:29.495Z,1016.94
2019-02-06T13:46:29.494Z,1016.95
2019-02-06T13:47:29.461Z,1017.01
2019-02-06T13:48:29.450Z,1016.94
2019-02-06T13:49:29.443Z,1016.85
2019-02-06T13:50:29.437Z,1016.90
2019-02-06T13:51:29.442Z,1016.95
2019-02-06T13:52:29.409Z,1016.98
2019-02-06T13:53:29.403Z,1016.89
2019-02-06T15:37:03.430Z,1016.31
2019-02-06T15:38:01.453Z,1016.27
2019-02-06T15:39:01.747Z,1016.23
2019-02-06T15:40:01.539Z,1016.30
2019-02-06T15:41:01.608Z,1016.30
2019-02-06T15:42:01.408Z,1016.24
2019-02-06T15:43:01.402Z,1016.28
2019-02-06T15:44:01.387Z,1016.22
2019-02-06T15:45:01.378Z,1016.17
2019-02-06T15:46:01.370Z,1016.20
2019-02-06T15:47:01.491Z,1016.16
2019-02-06T15:48:01.348Z,1016.10
2019-02-06T15:49:01.333Z,1016.10
2019-02-06T15:50:01.867Z,1016.12
2019-02-06T15:51:03.489Z,1016.03
2019-02-06T15:52:01.441Z,1016.07
2019-02-06T15:53:01.298Z,1016.03
2019-02-06T15:54:01.292Z,1016.05
2019-02-06T15:55:01.267Z,1016.10
2019-02-06T15:56:01.258Z,1016.09
2019-02-06T15:57:01.271Z,1016.07
2019-02-06T15:58:01.230Z,1016.05
2019-02-06T15:59:01.254Z,1016.04
2019-02-06T16:00:01.211Z,1016.00
2019-02-06T16:01:01.198Z,1016.06
2019-02-06T16:02:01.185Z,1016.05
2019-02-06T16:03:01.197Z,1016.00
2019-02-06T16:04:01.168Z,1016.03
2019-02-06T16:05:01.321Z,1016.02
2019-02-06T16:06:01.146Z,1016.02
